sensor_id;sensor_type;location;lat;lon;timestamp;pressure;altitude;pressure_sealevel;temperature;humidity
16016;BME280;8112;53.592;10.184;2023-02-12T00:02:21;103284.97;;;6.78;100.00
16016;BME280;8112;53.592;10.184;2023-02-12T00:07:23;103291.94;;;6.73;100.00
16016;BME280;8112;53.592;10.184;2023-02-12T00:12:24;103302.47;;;6.68;100.00
16016;BME280;8112;53.592;10.184;2023-02-12T00:17:27;103302.44;;;6.73;100.00
16016;BME280;8112;53.592;10.184;2023-02-12T00:22:29;103306.78;;;6.77;100.00
16016;BME280;8112;53.592;10.184;2023-02-12T00:27:32;103299.84;;;6.68;100.00
16016;BME280;8112;53.592;10.184;2023-02-12T00:32:35;103305.94;;;6.72;100.00
16016;BME280;8112;53.592;10.184;2023-02-12T00:37:37;103321.66;;;6.72;100.00
16016;BME280;8112;53.592;10.184;2023-02-12T00:42:38;103322.53;;;6.70;100.00
16016;BME280;8112;53.592;10.184;2023-02-12T00:47:41;103328.66;;;6.66;100.00
16016;BME280;8112;53.592;10.184;2023-02-12T00:52:43;103320.78;;;6.65;100.00
16016;BME280;8112;53.592;10.184;2023-02-12T00:57:45;103319.06;;;6.54;100.00
16016;BME280;8112;53.592;10.184;2023-02-12T01:02:48;103328.66;;;6.52;100.00
16016;BME280;8112;53.592;10.184;2023-02-12T01:07:50;103326.91;;;6.50;100.00
16016;BME280;8112;53.592;10.184;2023-02-12T01:12:52;103326.91;;;6.50;100.00
16016;BME280;8112;53.592;10.184;2023-02-12T01:17:55;103326.91;;;6.47;100.00
16016;BME280;8112;53.592;10.184;2023-02-12T01:22:57;103334.78;;;6.47;100.00
16016;BME280;8112;53.592;10.184;2023-02-12T01:28:01;103333.88;;;6.49;100.00
16016;BME280;8112;53.592;10.184;2023-02-12T01:33:04;103336.50;;;6.51;100.00
16016;BME280;8112;53.592;10.184;2023-02-12T01:38:05;103340.00;;;6.50;100.00
16016;BME280;8112;53.592;10.184;2023-02-12T01:43:10;103339.13;;;6.38;100.00
16016;BME280;8112;53.592;10.184;2023-02-12T01:48:15;103334.78;;;6.40;100.00
16016;BME280;8112;53.592;10.184;2023-02-12T01:53:19;103347.00;;;6.40;100.00
16016;BME280;8112;53.592;10.184;2023-02-12T01:58:23;103340.00;;;6.37;100.00
16016;BME280;8112;53.592;10.184;2023-02-12T02:03:27;103346.13;;;6.38;100.00
16016;BME280;8112;53.592;10.184;2023-02-12T02:08:29;103350.47;;;6.34;100.00
16016;BME280;8112;53.592;10.184;2023-02-12T02:13:30;103342.63;;;6.36;100.00
16016;BME280;8112;53.592;10.184;2023-02-12T02:18:58;103345.25;;;6.36;100.00
16016;BME280;8112;53.592;10.184;2023-02-12T02:24:15;103347.00;;;6.41;100.00
16016;BME280;8112;53.592;10.184;2023-02-12T02:29:42;103360.09;;;6.35;100.00
16016;BME280;8112;53.592;10.184;2023-02-12T02:34:54;103349.63;;;6.34;100.00
16016;BME280;8112;53.592;10.184;2023-02-12T02:40:08;103354.00;;;6.32;100.00
16016;BME280;8112;53.592;10.184;2023-02-12T02:45:14;103349.59;;;6.32;100.00
16016;BME280;8112;53.592;10.184;2023-02-12T02:50:20;103348.75;;;6.35;100.00
16016;BME280;8112;53.592;10.184;2023-02-12T02:55:26;103351.34;;;6.39;100.00
16016;BME280;8112;53.592;10.184;2023-02-12T03:00:34;103342.63;;;6.39;100.00
16016;BME280;8112;53.592;10.184;2023-02-12T03:05:42;103353.97;;;6.39;100.00
16016;BME280;8112;53.592;10.184;2023-02-12T03:10:48;103349.59;;;6.32;100.00
16016;BME280;8112;53.592;10.184;2023-02-12T03:15:57;103355.72;;;6.37;100.00
16016;BME280;8112;53.592;10.184;2023-02-12T03:21:05;103354.00;;;6.43;100.00
16016;BME280;8112;53.592;10.184;2023-02-12T03:26:13;103367.09;;;6.43;100.00
16016;BME280;8112;53.592;10.184;2023-02-12T03:31:28;103361.84;;;6.33;100.00
16016;BME280;8112;53.592;10.184;2023-02-12T03:36:39;103374.06;;;6.31;100.00
16016;BME280;8112;53.592;10.184;2023-02-12T03:41:49;103374.06;;;6.37;100.00
16016;BME280;8112;53.592;10.184;2023-02-12T03:47:00;103376.66;;;6.37;100.00
16016;BME280;8112;53.592;10.184;2023-02-12T03:52:04;103382.81;;;6.43;100.00
16016;BME280;8112;53.592;10.184;2023-02-12T03:57:08;103381.06;;;6.40;100.00
16016;BME280;8112;53.592;10.184;2023-02-12T04:02:11;103388.03;;;6.39;100.00
16016;BME280;8112;53.592;10.184;2023-02-12T04:07:15;103388.03;;;6.36;100.00
16016;BME280;8112;53.592;10.184;2023-02-12T04:12:30;103398.50;;;6.39;100.00
16016;BME280;8112;53.592;10.184;2023-02-12T04:17:43;103385.44;;;6.43;100.00
16016;BME280;8112;53.592;10.184;2023-02-12T04:22:56;103388.06;;;6.46;100.00
16016;BME280;8112;53.592;10.184;2023-02-12T04:28:09;103398.50;;;6.44;100.00
16016;BME280;8112;53.592;10.184;2023-02-12T04:33:16;103405.50;;;6.45;100.00
16016;BME280;8112;53.592;10.184;2023-02-12T04:38:24;103418.63;;;6.50;100.00
16016;BME280;8112;53.592;10.184;2023-02-12T04:43:28;103413.38;;;6.53;100.00
16016;BME280;8112;53.592;10.184;2023-02-12T04:48:30;103410.75;;;6.56;100.00
16016;BME280;8112;53.592;10.184;2023-02-12T04:53:35;103413.38;;;6.58;100.00
16016;BME280;8112;53.592;10.184;2023-02-12T04:58:37;103419.50;;;6.67;100.00
16016;BME280;8112;53.592;10.184;2023-02-12T05:03:39;103420.41;;;6.68;100.00
16016;BME280;8112;53.592;10.184;2023-02-12T05:08:42;103414.25;;;6.67;100.00
16016;BME280;8112;53.592;10.184;2023-02-12T05:13:47;103413.38;;;6.64;100.00
16016;BME280;8112;53.592;10.184;2023-02-12T05:18:49;103420.41;;;6.68;100.00
16016;BME280;8112;53.592;10.184;2023-02-12T05:23:52;103421.25;;;6.65;100.00
16016;BME280;8112;53.592;10.184;2023-02-12T05:28:53;103417.75;;;6.66;100.00
16016;BME280;8112;53.592;10.184;2023-02-12T05:33:55;103417.75;;;6.76;100.00
16016;BME280;8112;53.592;10.184;2023-02-12T05:38:58;103420.38;;;6.77;100.00
16016;BME280;8112;53.592;10.184;2023-02-12T05:44:00;103428.25;;;6.83;100.00
16016;BME280;8112;53.592;10.184;2023-02-12T05:49:06;103422.16;;;6.80;100.00
16016;BME280;8112;53.592;10.184;2023-02-12T05:54:10;103435.25;;;6.88;100.00
16016;BME280;8112;53.592;10.184;2023-02-12T05:59:14;103435.22;;;6.89;100.00
16016;BME280;8112;53.592;10.184;2023-02-12T06:04:18;103427.38;;;6.70;100.00
16016;BME280;8112;53.592;10.184;2023-02-12T06:09:21;103437.84;;;6.67;100.00
16016;BME280;8112;53.592;10.184;2023-02-12T06:14:23;103434.38;;;6.59;100.00
16016;BME280;8112;53.592;10.184;2023-02-12T06:19:25;103435.22;;;6.67;100.00
16016;BME280;8112;53.592;10.184;2023-02-12T06:24:28;103443.09;;;6.61;100.00
16016;BME280;8112;53.592;10.184;2023-02-12T06:29:30;103437.84;;;6.63;100.00
16016;BME280;8112;53.592;10.184;2023-02-12T06:34:31;103442.22;;;6.79;100.00
16016;BME280;8112;53.592;10.184;2023-02-12T06:39:34;103447.47;;;6.87;100.00
16016;BME280;8112;53.592;10.184;2023-02-12T06:44:36;103446.59;;;6.83;100.00
16016;BME280;8112;53.592;10.184;2023-02-12T06:49:38;103450.94;;;6.74;100.00
16016;BME280;8112;53.592;10.184;2023-02-12T06:54:41;103463.22;;;6.84;100.00
16016;BME280;8112;53.592;10.184;2023-02-12T06:59:43;103465.84;;;6.78;100.00
16016;BME280;8112;53.592;10.184;2023-02-12T07:04:44;103472.81;;;6.79;100.00
16016;BME280;8112;53.592;10.184;2023-02-12T07:09:47;103474.56;;;6.86;100.00
16016;BME280;8112;53.592;10.184;2023-02-12T07:14:49;103487.69;;;6.95;100.00
16016;BME280;8112;53.592;10.184;2023-02-12T07:19:51;103491.19;;;7.04;100.00
16016;BME280;8112;53.592;10.184;2023-02-12T07:24:54;103495.53;;;7.11;100.00
16016;BME280;8112;53.592;10.184;2023-02-12T07:29:55;103499.91;;;6.95;100.00
16016;BME280;8112;53.592;10.184;2023-02-12T07:35:07;103513.91;;;7.09;100.00
16016;BME280;8112;53.592;10.184;2023-02-12T07:40:11;103504.31;;;7.05;100.00
16016;BME280;8112;53.592;10.184;2023-02-12T07:45:13;103501.66;;;7.07;100.00
16016;BME280;8112;53.592;10.184;2023-02-12T07:50:15;103500.78;;;7.05;100.00
16016;BME280;8112;53.592;10.184;2023-02-12T07:55:18;103507.81;;;7.26;100.00
16016;BME280;8112;53.592;10.184;2023-02-12T08:00:20;103510.44;;;7.26;100.00
16016;BME280;8112;53.592;10.184;2023-02-12T08:05:22;103515.63;;;7.31;100.00
16016;BME280;8112;53.592;10.184;2023-02-12T08:10:25;103527.00;;;7.48;100.00
16016;BME280;8112;53.592;10.184;2023-02-12T08:15:27;103522.66;;;7.53;100.00
16016;BME280;8112;53.592;10.184;2023-02-12T08:20:28;103527.88;;;7.56;100.00
16016;BME280;8112;53.592;10.184;2023-02-12T08:25:31;103524.38;;;7.48;100.00
16016;BME280;8112;53.592;10.184;2023-02-12T08:30:33;103530.47;;;7.70;100.00
16016;BME280;8112;53.592;10.184;2023-02-12T08:35:35;103534.88;;;7.70;100.00
16016;BME280;8112;53.592;10.184;2023-02-12T08:40:38;103536.59;;;7.82;100.00
16016;BME280;8112;53.592;10.184;2023-02-12T08:45:39;103538.31;;;7.81;100.00
16016;BME280;8112;53.592;10.184;2023-02-12T08:50:42;103540.06;;;7.85;100.00
16016;BME280;8112;53.592;10.184;2023-02-12T08:55:48;103551.44;;;7.94;100.00
16016;BME280;8112;53.592;10.184;2023-02-12T09:00:50;103547.94;;;7.92;100.00
16016;BME280;8112;53.592;10.184;2023-02-12T09:05:52;103549.69;;;7.93;100.00
16016;BME280;8112;53.592;10.184;2023-02-12T09:10:55;103553.16;;;8.04;100.00
16016;BME280;8112;53.592;10.184;2023-02-12T09:15:59;103550.53;;;8.10;100.00
16016;BME280;8112;53.592;10.184;2023-02-12T09:21:02;103560.13;;;8.19;100.00
16016;BME280;8112;53.592;10.184;2023-02-12T09:26:07;103557.47;;;8.22;100.00
16016;BME280;8112;53.592;10.184;2023-02-12T09:31:11;103551.25;;;8.47;100.00
16016;BME280;8112;53.592;10.184;2023-02-12T09:36:14;103554.78;;;8.39;100.00
16016;BME280;8112;53.592;10.184;2023-02-12T09:41:31;103557.44;;;8.32;100.00
16016;BME280;8112;53.592;10.184;2023-02-12T09:46:41;103557.41;;;8.39;100.00
16016;BME280;8112;53.592;10.184;2023-02-12T09:51:49;103564.38;;;8.47;100.00
16016;BME280;8112;53.592;10.184;2023-02-12T09:56:58;103561.78;;;8.50;100.00
16016;BME280;8112;53.592;10.184;2023-02-12T10:02:00;103562.44;;;8.89;100.00
16016;BME280;8112;53.592;10.184;2023-02-12T10:07:10;103569.47;;;8.87;100.00
16016;BME280;8112;53.592;10.184;2023-02-12T10:12:23;103567.81;;;8.67;100.00
16016;BME280;8112;53.592;10.184;2023-02-12T10:17:36;103559.09;;;8.56;100.00
16016;BME280;8112;53.592;10.184;2023-02-12T10:22:49;103560.84;;;8.57;100.00
16016;BME280;8112;53.592;10.184;2023-02-12T10:27:59;103560.00;;;8.50;100.00
16016;BME280;8112;53.592;10.184;2023-02-12T10:33:06;103560.06;;;8.38;100.00
16016;BME280;8112;53.592;10.184;2023-02-12T10:38:15;103561.75;;;8.45;100.00
16016;BME280;8112;53.592;10.184;2023-02-12T10:43:19;103562.63;;;8.55;100.00
16016;BME280;8112;53.592;10.184;2023-02-12T10:48:23;103553.91;;;8.42;100.00
16016;BME280;8112;53.592;10.184;2023-02-12T10:53:29;103542.56;;;8.23;100.00
16016;BME280;8112;53.592;10.184;2023-02-12T10:58:33;103545.13;;;8.41;100.00
16016;BME280;8112;53.592;10.184;2023-02-12T11:03:35;103544.25;;;8.41;100.00
16016;BME280;8112;53.592;10.184;2023-02-12T11:08:39;103543.38;;;8.40;100.00
16016;BME280;8112;53.592;10.184;2023-02-12T11:13:46;103542.47;;;8.46;100.00
16016;BME280;8112;53.592;10.184;2023-02-12T11:18:57;103541.53;;;8.67;100.00
16016;BME280;8112;53.592;10.184;2023-02-12T11:24:25;103535.41;;;8.64;100.00
16016;BME280;8112;53.592;10.184;2023-02-12T11:29:30;103535.28;;;8.82;100.00
16016;BME280;8112;53.592;10.184;2023-02-12T11:34:33;103531.09;;;8.49;100.00
16016;BME280;8112;53.592;10.184;2023-02-12T11:39:37;103529.25;;;8.69;100.00
16016;BME280;8112;53.592;10.184;2023-02-12T11:44:47;103519.66;;;8.59;100.00
16016;BME280;8112;53.592;10.184;2023-02-12T11:49:51;103515.28;;;8.61;100.00
16016;BME280;8112;53.592;10.184;2023-02-12T11:54:56;103518.75;;;8.66;100.00
16016;BME280;8112;53.592;10.184;2023-02-12T12:00:03;103524.66;;;9.00;100.00
16016;BME280;8112;53.592;10.184;2023-02-12T12:05:15;103522.16;;;8.84;100.00
16016;BME280;8112;53.592;10.184;2023-02-12T12:10:24;103519.50;;;8.87;100.00
16016;BME280;8112;53.592;10.184;2023-02-12T12:15:33;103509.91;;;8.80;100.00
16016;BME280;8112;53.592;10.184;2023-02-12T12:20:57;103510.00;;;8.63;100.00
16016;BME280;8112;53.592;10.184;2023-02-12T12:26:07;103497.78;;;8.48;100.00
16016;BME280;8112;53.592;10.184;2023-02-12T12:31:15;103497.81;;;8.45;100.00
16016;BME280;8112;53.592;10.184;2023-02-12T12:47:31;103483.13;;;8.06;100.00
16016;BME280;8112;53.592;10.184;2023-02-12T12:53:01;103481.22;;;8.33;100.00
16016;BME280;8112;53.592;10.184;2023-02-12T12:58:11;103475.84;;;8.61;100.00
16016;BME280;8112;53.592;10.184;2023-02-12T13:03:40;103476.59;;;8.82;100.00
16016;BME280;8112;53.592;10.184;2023-02-12T13:08:55;103473.91;;;8.88;100.00
16016;BME280;8112;53.592;10.184;2023-02-12T13:14:12;103481.91;;;8.69;100.00
16016;BME280;8112;53.592;10.184;2023-02-12T13:19:23;103470.53;;;8.67;100.00
16016;BME280;8112;53.592;10.184;2023-02-12T13:24:34;103467.06;;;8.61;100.00
16016;BME280;8112;53.592;10.184;2023-02-12T13:29:42;103465.34;;;8.61;100.00
16016;BME280;8112;53.592;10.184;2023-02-12T13:34:46;103466.19;;;8.63;100.00
16016;BME280;8112;53.592;10.184;2023-02-12T13:39:49;103465.25;;;8.70;100.00
16016;BME280;8112;53.592;10.184;2023-02-12T13:44:56;103468.78;;;8.68;100.00
16016;BME280;8112;53.592;10.184;2023-02-12T13:50:12;103468.91;;;8.51;100.00
16016;BME280;8112;53.592;10.184;2023-02-12T13:55:23;103461.88;;;8.47;100.00
16016;BME280;8112;53.592;10.184;2023-02-12T14:00:57;103459.25;;;8.53;100.00
16016;BME280;8112;53.592;10.184;2023-02-12T14:06:13;103463.56;;;8.63;100.00
16016;BME280;8112;53.592;10.184;2023-02-12T14:11:17;103453.06;;;8.62;100.00
16016;BME280;8112;53.592;10.184;2023-02-12T14:16:36;103457.44;;;8.64;100.00
16016;BME280;8112;53.592;10.184;2023-02-12T14:21:40;103452.19;;;8.61;100.00
16016;BME280;8112;53.592;10.184;2023-02-12T14:26:45;103460.97;;;8.60;100.00
16016;BME280;8112;53.592;10.184;2023-02-12T14:31:47;103449.72;;;8.30;100.00
16016;BME280;8112;53.592;10.184;2023-02-12T14:37:10;103463.72;;;8.32;100.00
16016;BME280;8112;53.592;10.184;2023-02-12T14:42:51;103463.72;;;8.31;100.00
16016;BME280;8112;53.592;10.184;2023-02-12T14:47:55;103463.75;;;8.29;100.00
16016;BME280;8112;53.592;10.184;2023-02-12T14:53:03;103462.91;;;8.24;100.00
16016;BME280;8112;53.592;10.184;2023-02-12T14:58:16;103478.63;;;8.30;100.00
16016;BME280;8112;53.592;10.184;2023-02-12T15:03:22;103468.00;;;8.47;100.00
16016;BME280;8112;53.592;10.184;2023-02-12T15:08:32;103469.78;;;8.45;100.00
16016;BME280;8112;53.592;10.184;2023-02-12T15:13:45;103467.22;;;8.33;100.00
16016;BME280;8112;53.592;10.184;2023-02-12T15:18:51;103486.47;;;8.32;100.00
16016;BME280;8112;53.592;10.184;2023-02-12T15:24:04;103487.41;;;8.26;100.00
16016;BME280;8112;53.592;10.184;2023-02-12T15:29:13;103477.75;;;8.26;100.00
16016;BME280;8112;53.592;10.184;2023-02-12T15:34:19;103465.53;;;8.19;100.00
16016;BME280;8112;53.592;10.184;2023-02-12T15:39:24;103478.66;;;8.21;100.00
16016;BME280;8112;53.592;10.184;2023-02-12T15:44:28;103478.69;;;8.18;100.00
16016;BME280;8112;53.592;10.184;2023-02-12T15:49:33;103479.56;;;8.18;100.00
16016;BME280;8112;53.592;10.184;2023-02-12T15:54:37;103480.41;;;8.19;100.00
16016;BME280;8112;53.592;10.184;2023-02-12T15:59:39;103480.41;;;8.19;100.00
16016;BME280;8112;53.592;10.184;2023-02-12T16:04:42;103479.59;;;8.09;100.00
16016;BME280;8112;53.592;10.184;2023-02-12T16:09:46;103468.25;;;8.05;100.00
16016;BME280;8112;53.592;10.184;2023-02-12T16:14:51;103474.38;;;7.99;100.00
16016;BME280;8112;53.592;10.184;2023-02-12T16:19:55;103474.44;;;7.82;100.00
16016;BME280;8112;53.592;10.184;2023-02-12T16:25:00;103486.69;;;7.85;100.00
16016;BME280;8112;53.592;10.184;2023-02-12T16:30:05;103489.31;;;7.85;100.00
16016;BME280;8112;53.592;10.184;2023-02-12T16:35:24;103498.09;;;7.79;100.00
16016;BME280;8112;53.592;10.184;2023-02-12T16:40:35;103503.34;;;7.75;100.00
16016;BME280;8112;53.592;10.184;2023-02-12T16:45:42;103496.38;;;7.67;100.00
16016;BME280;8112;53.592;10.184;2023-02-12T16:50:47;103499.84;;;7.69;100.00
16016;BME280;8112;53.592;10.184;2023-02-12T16:55:50;103494.59;;;7.74;100.00
16016;BME280;8112;53.592;10.184;2023-02-12T17:00:52;103503.34;;;7.67;100.00
16016;BME280;8112;53.592;10.184;2023-02-12T17:05:55;103505.09;;;7.65;100.00
16016;BME280;8112;53.592;10.184;2023-02-12T17:10:58;103506.88;;;7.69;100.00
16016;BME280;8112;53.592;10.184;2023-02-12T17:16:00;103505.97;;;7.68;100.00
16016;BME280;8112;53.592;10.184;2023-02-12T17:21:07;103503.38;;;7.70;100.00
16016;BME280;8112;53.592;10.184;2023-02-12T17:26:11;103501.63;;;7.55;100.00
16016;BME280;8112;53.592;10.184;2023-02-12T17:31:13;103508.59;;;7.64;100.00
16016;BME280;8112;53.592;10.184;2023-02-12T17:36:14;103513.88;;;7.61;100.00
16016;BME280;8112;53.592;10.184;2023-02-12T17:41:17;103527.84;;;7.66;100.00
16016;BME280;8112;53.592;10.184;2023-02-12T17:46:21;103519.09;;;7.67;100.00
16016;BME280;8112;53.592;10.184;2023-02-12T17:51:25;103530.47;;;7.70;100.00
16016;BME280;8112;53.592;10.184;2023-02-12T17:56:29;103531.38;;;7.62;100.00
16016;BME280;8112;53.592;10.184;2023-02-12T18:01:30;103527.00;;;7.65;100.00
16016;BME280;8112;53.592;10.184;2023-02-12T18:06:33;103525.25;;;7.64;100.00
16016;BME280;8112;53.592;10.184;2023-02-12T18:11:36;103537.50;;;7.61;100.00
16016;BME280;8112;53.592;10.184;2023-02-12T18:16:39;103534.84;;;7.64;100.00
16016;BME280;8112;53.592;10.184;2023-02-12T18:21:41;103533.13;;;7.60;100.00
16016;BME280;8112;53.592;10.184;2023-02-12T18:26:44;103540.16;;;7.51;100.00
16016;BME280;8112;53.592;10.184;2023-02-12T18:31:46;103543.66;;;7.53;100.00
16016;BME280;8112;53.592;10.184;2023-02-12T18:36:48;103544.50;;;7.54;100.00
16016;BME280;8112;53.592;10.184;2023-02-12T18:41:51;103540.97;;;7.58;100.00
16016;BME280;8112;53.592;10.184;2023-02-12T18:46:52;103541.88;;;7.55;100.00
16016;BME280;8112;53.592;10.184;2023-02-12T18:51:55;103541.88;;;7.62;100.00
16016;BME280;8112;53.592;10.184;2023-02-12T18:56:58;103540.09;;;7.67;100.00
16016;BME280;8112;53.592;10.184;2023-02-12T19:02:01;103540.13;;;7.61;100.00
16016;BME280;8112;53.592;10.184;2023-02-12T19:07:03;103554.13;;;7.63;100.00
16016;BME280;8112;53.592;10.184;2023-02-12T19:12:07;103539.28;;;7.52;100.00
16016;BME280;8112;53.592;10.184;2023-02-12T19:17:10;103547.13;;;7.55;100.00
16016;BME280;8112;53.592;10.184;2023-02-12T19:22:11;103541.91;;;7.52;100.00
16016;BME280;8112;53.592;10.184;2023-02-12T19:27:14;103549.75;;;7.57;100.00
16016;BME280;8112;53.592;10.184;2023-02-12T19:32:17;103549.75;;;7.57;100.00
16016;BME280;8112;53.592;10.184;2023-02-12T19:37:18;103546.28;;;7.50;100.00
16016;BME280;8112;53.592;10.184;2023-02-12T19:42:22;103550.63;;;7.54;100.00
16016;BME280;8112;53.592;10.184;2023-02-12T19:47:23;103549.75;;;7.57;100.00
16016;BME280;8112;53.592;10.184;2023-02-12T19:52:26;103547.13;;;7.57;100.00
16016;BME280;8112;53.592;10.184;2023-02-12T19:57:29;103542.75;;;7.61;100.00
16016;BME280;8112;53.592;10.184;2023-02-12T20:02:30;103558.53;;;7.51;100.00
16016;BME280;8112;53.592;10.184;2023-02-12T20:07:32;103550.63;;;7.50;100.00
16016;BME280;8112;53.592;10.184;2023-02-12T20:12:35;103556.75;;;7.56;100.00
16016;BME280;8112;53.592;10.184;2023-02-12T20:17:39;103555.00;;;7.48;100.00
16016;BME280;8112;53.592;10.184;2023-02-12T20:22:41;103544.50;;;7.48;100.00
16016;BME280;8112;53.592;10.184;2023-02-12T20:27:44;103551.50;;;7.46;100.00
16016;BME280;8112;53.592;10.184;2023-02-12T20:32:45;103548.88;;;7.46;100.00
16016;BME280;8112;53.592;10.184;2023-02-12T20:37:47;103550.63;;;7.47;100.00
16016;BME280;8112;53.592;10.184;2023-02-12T20:42:50;103546.25;;;7.47;100.00
16016;BME280;8112;53.592;10.184;2023-02-12T20:47:52;103547.13;;;7.43;100.00
16016;BME280;8112;53.592;10.184;2023-02-12T20:52:53;103548.88;;;7.44;100.00
16016;BME280;8112;53.592;10.184;2023-02-12T20:57:56;103546.25;;;7.47;100.00
16016;BME280;8112;53.592;10.184;2023-02-12T21:02:58;103545.38;;;7.42;100.00
16016;BME280;8112;53.592;10.184;2023-02-12T21:08:03;103540.13;;;7.42;100.00
16016;BME280;8112;53.592;10.184;2023-02-12T21:13:06;103534.03;;;7.40;100.00
16016;BME280;8112;53.592;10.184;2023-02-12T21:18:08;103530.53;;;7.43;100.00
16016;BME280;8112;53.592;10.184;2023-02-12T21:23:09;103531.41;;;7.40;100.00
16016;BME280;8112;53.592;10.184;2023-02-12T21:28:12;103537.53;;;7.39;100.00
16016;BME280;8112;53.592;10.184;2023-02-12T21:33:14;103534.91;;;7.39;100.00
16016;BME280;8112;53.592;10.184;2023-02-12T21:38:16;103527.91;;;7.38;100.00
16016;BME280;8112;53.592;10.184;2023-02-12T21:43:19;103531.38;;;7.43;100.00
16016;BME280;8112;53.592;10.184;2023-02-12T21:48:20;103537.53;;;7.44;100.00
16016;BME280;8112;53.592;10.184;2023-02-12T21:53:22;103543.63;;;7.44;100.00
16016;BME280;8112;53.592;10.184;2023-02-12T21:58:26;103540.16;;;7.39;100.00
16016;BME280;8112;53.592;10.184;2023-02-12T22:03:27;103541.03;;;7.38;100.00
16016;BME280;8112;53.592;10.184;2023-02-12T22:08:29;103530.50;;;7.44;100.00
16016;BME280;8112;53.592;10.184;2023-02-12T22:13:33;103537.53;;;7.44;100.00
16016;BME280;8112;53.592;10.184;2023-02-12T22:18:34;103530.53;;;7.38;100.00
16016;BME280;8112;53.592;10.184;2023-02-12T22:23:37;103546.28;;;7.43;100.00
16016;BME280;8112;53.592;10.184;2023-02-12T22:28:41;103527.91;;;7.43;100.00
16016;BME280;8112;53.592;10.184;2023-02-12T22:33:43;103535.78;;;7.43;100.00
16016;BME280;8112;53.592;10.184;2023-02-12T22:38:45;103528.75;;;7.31;100.00
16016;BME280;8112;53.592;10.184;2023-02-12T22:43:48;103526.16;;;7.34;100.00
16016;BME280;8112;53.592;10.184;2023-02-12T22:48:50;103534.91;;;7.28;100.00
16016;BME280;8112;53.592;10.184;2023-02-12T22:53:52;103527.91;;;7.25;100.00
16016;BME280;8112;53.592;10.184;2023-02-12T22:58:56;103526.16;;;7.27;100.00
16016;BME280;8112;53.592;10.184;2023-02-12T23:03:58;103522.66;;;7.28;100.00
16016;BME280;8112;53.592;10.184;2023-02-12T23:09:02;103516.53;;;7.28;100.00
16016;BME280;8112;53.592;10.184;2023-02-12T23:14:05;103520.03;;;7.27;100.00
16016;BME280;8112;53.592;10.184;2023-02-12T23:19:09;103527.03;;;7.25;100.00
16016;BME280;8112;53.592;10.184;2023-02-12T23:24:12;103532.28;;;7.17;100.00
16016;BME280;8112;53.592;10.184;2023-02-12T23:29:15;103534.91;;;7.17;100.00
16016;BME280;8112;53.592;10.184;2023-02-12T23:34:17;103533.13;;;7.15;100.00
16016;BME280;8112;53.592;10.184;2023-02-12T23:39:19;103528.75;;;7.20;100.00
16016;BME280;8112;53.592;10.184;2023-02-12T23:44:23;103516.53;;;7.09;100.00
16016;BME280;8112;53.592;10.184;2023-02-12T23:49:24;103525.28;;;7.16;100.00
16016;BME280;8112;53.592;10.184;2023-02-12T23:54:26;103524.38;;;7.22;100.00
16016;BME280;8112;53.592;10.184;2023-02-12T23:59:29;103518.28;;;7.21;100.00
